sensor_id;sensor_type;location;lat;lon;timestamp;P1;durP1;ratioP1;P2;durP2;ratioP2
60969;SDS011;46841;48.938;9.502;2024-01-30T00:02:14;1.20;;;1.20;;
60969;SDS011;46841;48.938;9.502;2024-01-30T00:04:39;1.20;;;1.20;;
60969;SDS011;46841;48.938;9.502;2024-01-30T00:07:04;1.20;;;1.20;;
60969;SDS011;46841;48.938;9.502;2024-01-30T00:09:30;1.20;;;1.20;;
60969;SDS011;46841;48.938;9.502;2024-01-30T00:11:56;1.20;;;1.20;;
60969;SDS011;46841;48.938;9.502;2024-01-30T00:14:22;1.20;;;1.20;;
60969;SDS011;46841;48.938;9.502;2024-01-30T00:16:48;1.20;;;1.20;;
60969;SDS011;46841;48.938;9.502;2024-01-30T00:19:14;1.17;;;1.17;;
60969;SDS011;46841;48.938;9.502;2024-01-30T00:21:40;1.20;;;1.20;;
60969;SDS011;46841;48.938;9.502;2024-01-30T00:24:06;1.20;;;1.20;;
60969;SDS011;46841;48.938;9.502;2024-01-30T00:26:31;1.10;;;1.10;;
60969;SDS011;46841;48.938;9.502;2024-01-30T00:28:57;1.10;;;1.10;;
60969;SDS011;46841;48.938;9.502;2024-01-30T00:31:22;1.20;;;1.20;;
60969;SDS011;46841;48.938;9.502;2024-01-30T00:33:48;1.20;;;1.20;;
60969;SDS011;46841;48.938;9.502;2024-01-30T00:36:13;1.20;;;1.20;;
60969;SDS011;46841;48.938;9.502;2024-01-30T00:38:39;1.20;;;1.20;;
60969;SDS011;46841;48.938;9.502;2024-01-30T00:41:06;1.10;;;1.10;;
60969;SDS011;46841;48.938;9.502;2024-01-30T00:43:32;1.20;;;1.20;;
60969;SDS011;46841;48.938;9.502;2024-01-30T00:45:58;1.10;;;1.10;;
60969;SDS011;46841;48.938;9.502;2024-01-30T00:48:24;1.10;;;1.10;;
60969;SDS011;46841;48.938;9.502;2024-01-30T00:50:50;1.20;;;1.20;;
60969;SDS011;46841;48.938;9.502;2024-01-30T00:53:15;1.20;;;1.20;;
60969;SDS011;46841;48.938;9.502;2024-01-30T00:55:41;1.20;;;1.20;;
60969;SDS011;46841;48.938;9.502;2024-01-30T00:58:06;1.20;;;1.20;;
60969;SDS011;46841;48.938;9.502;2024-01-30T01:00:32;1.20;;;1.20;;
60969;SDS011;46841;48.938;9.502;2024-01-30T01:02:58;1.20;;;1.20;;
60969;SDS011;46841;48.938;9.502;2024-01-30T01:05:23;1.20;;;1.20;;
60969;SDS011;46841;48.938;9.502;2024-01-30T01:07:49;1.10;;;1.10;;
60969;SDS011;46841;48.938;9.502;2024-01-30T01:10:16;1.20;;;1.20;;
60969;SDS011;46841;48.938;9.502;2024-01-30T01:12:42;1.30;;;1.30;;
60969;SDS011;46841;48.938;9.502;2024-01-30T01:15:08;1.20;;;1.20;;
60969;SDS011;46841;48.938;9.502;2024-01-30T01:17:35;1.20;;;1.20;;
60969;SDS011;46841;48.938;9.502;2024-01-30T01:20:03;1.20;;;1.20;;
60969;SDS011;46841;48.938;9.502;2024-01-30T01:22:31;1.20;;;1.20;;
60969;SDS011;46841;48.938;9.502;2024-01-30T01:24:56;1.20;;;1.20;;
60969;SDS011;46841;48.938;9.502;2024-01-30T01:27:22;1.20;;;1.20;;
60969;SDS011;46841;48.938;9.502;2024-01-30T01:29:47;1.20;;;1.20;;
60969;SDS011;46841;48.938;9.502;2024-01-30T01:32:13;1.20;;;1.20;;
60969;SDS011;46841;48.938;9.502;2024-01-30T01:34:38;1.20;;;1.20;;
60969;SDS011;46841;48.938;9.502;2024-01-30T01:37:03;1.20;;;1.20;;
60969;SDS011;46841;48.938;9.502;2024-01-30T01:39:30;1.10;;;1.10;;
60969;SDS011;46841;48.938;9.502;2024-01-30T01:41:56;1.10;;;1.10;;
60969;SDS011;46841;48.938;9.502;2024-01-30T01:44:21;1.20;;;1.20;;
60969;SDS011;46841;48.938;9.502;2024-01-30T01:46:46;1.20;;;1.20;;
60969;SDS011;46841;48.938;9.502;2024-01-30T01:49:12;1.20;;;1.20;;
60969;SDS011;46841;48.938;9.502;2024-01-30T01:51:39;1.20;;;1.20;;
60969;SDS011;46841;48.938;9.502;2024-01-30T01:54:07;1.20;;;1.20;;
60969;SDS011;46841;48.938;9.502;2024-01-30T01:56:34;1.20;;;1.20;;
60969;SDS011;46841;48.938;9.502;2024-01-30T01:59:02;1.20;;;1.20;;
60969;SDS011;46841;48.938;9.502;2024-01-30T02:01:32;1.20;;;1.20;;
60969;SDS011;46841;48.938;9.502;2024-01-30T02:03:58;1.10;;;1.10;;
60969;SDS011;46841;48.938;9.502;2024-01-30T02:06:24;1.20;;;1.20;;
60969;SDS011;46841;48.938;9.502;2024-01-30T02:08:50;1.20;;;1.20;;
60969;SDS011;46841;48.938;9.502;2024-01-30T02:11:15;1.17;;;1.17;;
60969;SDS011;46841;48.938;9.502;2024-01-30T02:13:41;1.27;;;1.27;;
60969;SDS011;46841;48.938;9.502;2024-01-30T02:16:08;1.10;;;1.10;;
60969;SDS011;46841;48.938;9.502;2024-01-30T02:18:35;1.20;;;1.20;;
60969;SDS011;46841;48.938;9.502;2024-01-30T02:21:04;1.20;;;1.20;;
60969;SDS011;46841;48.938;9.502;2024-01-30T02:23:29;1.20;;;1.20;;
60969;SDS011;46841;48.938;9.502;2024-01-30T02:25:58;1.20;;;1.20;;
60969;SDS011;46841;48.938;9.502;2024-01-30T02:28:23;1.20;;;1.20;;
60969;SDS011;46841;48.938;9.502;2024-01-30T02:30:48;1.20;;;1.20;;
60969;SDS011;46841;48.938;9.502;2024-01-30T02:33:14;1.20;;;1.20;;
60969;SDS011;46841;48.938;9.502;2024-01-30T02:35:39;1.20;;;1.20;;
60969;SDS011;46841;48.938;9.502;2024-01-30T02:38:05;1.20;;;1.20;;
60969;SDS011;46841;48.938;9.502;2024-01-30T02:40:31;1.10;;;1.10;;
60969;SDS011;46841;48.938;9.502;2024-01-30T02:42:58;1.20;;;1.20;;
60969;SDS011;46841;48.938;9.502;2024-01-30T02:45:24;1.10;;;1.10;;
60969;SDS011;46841;48.938;9.502;2024-01-30T02:47:50;1.10;;;1.10;;
60969;SDS011;46841;48.938;9.502;2024-01-30T02:50:16;1.20;;;1.20;;
60969;SDS011;46841;48.938;9.502;2024-01-30T02:52:41;1.17;;;1.17;;
60969;SDS011;46841;48.938;9.502;2024-01-30T02:55:09;1.20;;;1.20;;
60969;SDS011;46841;48.938;9.502;2024-01-30T02:57:35;1.10;;;1.10;;
60969;SDS011;46841;48.938;9.502;2024-01-30T03:00:00;1.20;;;1.20;;
60969;SDS011;46841;48.938;9.502;2024-01-30T03:02:26;1.23;;;1.23;;
60969;SDS011;46841;48.938;9.502;2024-01-30T03:04:51;1.20;;;1.20;;
60969;SDS011;46841;48.938;9.502;2024-01-30T03:07:17;1.20;;;1.20;;
60969;SDS011;46841;48.938;9.502;2024-01-30T03:09:42;1.20;;;1.20;;
60969;SDS011;46841;48.938;9.502;2024-01-30T03:12:09;1.20;;;1.20;;
60969;SDS011;46841;48.938;9.502;2024-01-30T03:14:35;1.20;;;1.20;;
60969;SDS011;46841;48.938;9.502;2024-01-30T03:17:00;1.10;;;1.10;;
60969;SDS011;46841;48.938;9.502;2024-01-30T03:19:26;1.10;;;1.10;;
60969;SDS011;46841;48.938;9.502;2024-01-30T03:21:51;1.20;;;1.20;;
60969;SDS011;46841;48.938;9.502;2024-01-30T03:24:16;1.08;;;1.08;;
60969;SDS011;46841;48.938;9.502;2024-01-30T03:26:43;1.10;;;1.10;;
60969;SDS011;46841;48.938;9.502;2024-01-30T03:29:08;1.20;;;1.20;;
60969;SDS011;46841;48.938;9.502;2024-01-30T03:31:34;1.20;;;1.20;;
60969;SDS011;46841;48.938;9.502;2024-01-30T03:34:00;1.20;;;1.20;;
60969;SDS011;46841;48.938;9.502;2024-01-30T03:36:26;1.30;;;1.30;;
60969;SDS011;46841;48.938;9.502;2024-01-30T03:38:51;1.13;;;1.13;;
60969;SDS011;46841;48.938;9.502;2024-01-30T03:41:17;1.20;;;1.20;;
60969;SDS011;46841;48.938;9.502;2024-01-30T03:43:42;1.10;;;1.10;;
60969;SDS011;46841;48.938;9.502;2024-01-30T03:46:08;1.20;;;1.20;;
60969;SDS011;46841;48.938;9.502;2024-01-30T03:48:34;1.20;;;1.20;;
60969;SDS011;46841;48.938;9.502;2024-01-30T03:50:59;1.20;;;1.20;;
60969;SDS011;46841;48.938;9.502;2024-01-30T03:53:24;1.20;;;1.20;;
60969;SDS011;46841;48.938;9.502;2024-01-30T03:55:50;1.20;;;1.20;;
60969;SDS011;46841;48.938;9.502;2024-01-30T03:58:16;1.10;;;1.10;;
60969;SDS011;46841;48.938;9.502;2024-01-30T04:00:41;1.20;;;1.20;;
60969;SDS011;46841;48.938;9.502;2024-01-30T04:03:07;1.20;;;1.20;;
60969;SDS011;46841;48.938;9.502;2024-01-30T04:05:34;1.00;;;1.00;;
60969;SDS011;46841;48.938;9.502;2024-01-30T04:07:59;1.10;;;1.10;;
60969;SDS011;46841;48.938;9.502;2024-01-30T04:10:25;1.20;;;1.20;;
60969;SDS011;46841;48.938;9.502;2024-01-30T04:12:50;1.10;;;1.10;;
60969;SDS011;46841;48.938;9.502;2024-01-30T04:15:17;1.20;;;1.20;;
60969;SDS011;46841;48.938;9.502;2024-01-30T04:17:43;1.20;;;1.20;;
60969;SDS011;46841;48.938;9.502;2024-01-30T04:20:13;1.20;;;1.20;;
60969;SDS011;46841;48.938;9.502;2024-01-30T04:22:39;1.10;;;1.10;;
60969;SDS011;46841;48.938;9.502;2024-01-30T04:25:05;1.30;;;1.30;;
60969;SDS011;46841;48.938;9.502;2024-01-30T04:27:30;1.20;;;1.20;;
60969;SDS011;46841;48.938;9.502;2024-01-30T04:29:56;1.20;;;1.20;;
60969;SDS011;46841;48.938;9.502;2024-01-30T04:32:21;1.13;;;1.13;;
60969;SDS011;46841;48.938;9.502;2024-01-30T04:34:47;1.20;;;1.20;;
60969;SDS011;46841;48.938;9.502;2024-01-30T04:37:12;1.10;;;1.10;;
60969;SDS011;46841;48.938;9.502;2024-01-30T04:39:38;1.05;;;1.05;;
60969;SDS011;46841;48.938;9.502;2024-01-30T04:42:03;1.20;;;1.20;;
60969;SDS011;46841;48.938;9.502;2024-01-30T04:44:29;1.15;;;1.15;;
60969;SDS011;46841;48.938;9.502;2024-01-30T04:46:54;1.20;;;1.20;;
60969;SDS011;46841;48.938;9.502;2024-01-30T04:49:24;1.20;;;1.20;;
60969;SDS011;46841;48.938;9.502;2024-01-30T04:51:49;1.20;;;1.20;;
60969;SDS011;46841;48.938;9.502;2024-01-30T04:54:14;1.10;;;1.10;;
60969;SDS011;46841;48.938;9.502;2024-01-30T04:56:40;1.20;;;1.20;;
60969;SDS011;46841;48.938;9.502;2024-01-30T04:59:05;1.10;;;1.10;;
60969;SDS011;46841;48.938;9.502;2024-01-30T05:01:31;1.10;;;1.10;;
60969;SDS011;46841;48.938;9.502;2024-01-30T05:04:00;1.10;;;1.10;;
60969;SDS011;46841;48.938;9.502;2024-01-30T05:06:28;1.10;;;1.10;;
60969;SDS011;46841;48.938;9.502;2024-01-30T05:08:56;1.20;;;1.20;;
60969;SDS011;46841;48.938;9.502;2024-01-30T05:11:29;1.10;;;1.10;;
60969;SDS011;46841;48.938;9.502;2024-01-30T05:14:15;1.20;;;1.20;;
60969;SDS011;46841;48.938;9.502;2024-01-30T05:16:41;1.20;;;1.20;;
60969;SDS011;46841;48.938;9.502;2024-01-30T05:19:08;1.30;;;1.30;;
60969;SDS011;46841;48.938;9.502;2024-01-30T05:21:33;1.20;;;1.20;;
60969;SDS011;46841;48.938;9.502;2024-01-30T05:23:59;1.17;;;1.17;;
60969;SDS011;46841;48.938;9.502;2024-01-30T05:26:24;1.20;;;1.20;;
60969;SDS011;46841;48.938;9.502;2024-01-30T05:28:51;1.20;;;1.20;;
60969;SDS011;46841;48.938;9.502;2024-01-30T05:31:17;1.20;;;1.20;;
60969;SDS011;46841;48.938;9.502;2024-01-30T05:33:42;1.10;;;1.10;;
60969;SDS011;46841;48.938;9.502;2024-01-30T05:36:07;1.10;;;1.10;;
60969;SDS011;46841;48.938;9.502;2024-01-30T05:38:33;1.10;;;1.10;;
60969;SDS011;46841;48.938;9.502;2024-01-30T05:40:58;1.20;;;1.20;;
60969;SDS011;46841;48.938;9.502;2024-01-30T05:43:24;1.13;;;1.13;;
60969;SDS011;46841;48.938;9.502;2024-01-30T05:45:50;1.10;;;1.10;;
60969;SDS011;46841;48.938;9.502;2024-01-30T05:48:17;1.20;;;1.20;;
60969;SDS011;46841;48.938;9.502;2024-01-30T05:50:42;1.10;;;1.10;;
60969;SDS011;46841;48.938;9.502;2024-01-30T05:53:08;1.10;;;1.10;;
60969;SDS011;46841;48.938;9.502;2024-01-30T05:55:33;1.13;;;1.13;;
60969;SDS011;46841;48.938;9.502;2024-01-30T05:58:00;1.20;;;1.20;;
60969;SDS011;46841;48.938;9.502;2024-01-30T06:00:26;1.20;;;1.20;;
60969;SDS011;46841;48.938;9.502;2024-01-30T06:02:52;1.10;;;1.10;;
60969;SDS011;46841;48.938;9.502;2024-01-30T06:05:20;1.17;;;1.17;;
60969;SDS011;46841;48.938;9.502;2024-01-30T06:07:48;1.10;;;1.10;;
60969;SDS011;46841;48.938;9.502;2024-01-30T06:10:13;1.10;;;1.10;;
60969;SDS011;46841;48.938;9.502;2024-01-30T06:12:40;1.02;;;1.02;;
60969;SDS011;46841;48.938;9.502;2024-01-30T06:15:06;1.10;;;1.10;;
60969;SDS011;46841;48.938;9.502;2024-01-30T06:17:32;1.10;;;1.10;;
60969;SDS011;46841;48.938;9.502;2024-01-30T06:20:01;1.20;;;1.20;;
60969;SDS011;46841;48.938;9.502;2024-01-30T06:22:26;1.10;;;1.10;;
60969;SDS011;46841;48.938;9.502;2024-01-30T06:24:52;1.20;;;1.20;;
60969;SDS011;46841;48.938;9.502;2024-01-30T06:27:19;1.20;;;1.20;;
60969;SDS011;46841;48.938;9.502;2024-01-30T06:29:44;1.20;;;1.20;;
60969;SDS011;46841;48.938;9.502;2024-01-30T06:32:09;1.13;;;1.13;;
60969;SDS011;46841;48.938;9.502;2024-01-30T06:34:35;1.20;;;1.20;;
60969;SDS011;46841;48.938;9.502;2024-01-30T06:37:01;1.20;;;1.20;;
60969;SDS011;46841;48.938;9.502;2024-01-30T06:39:27;1.15;;;1.15;;
60969;SDS011;46841;48.938;9.502;2024-01-30T06:41:53;1.20;;;1.20;;
60969;SDS011;46841;48.938;9.502;2024-01-30T06:44:18;1.20;;;1.20;;
60969;SDS011;46841;48.938;9.502;2024-01-30T06:46:45;1.17;;;1.17;;
60969;SDS011;46841;48.938;9.502;2024-01-30T06:49:10;1.15;;;1.15;;
60969;SDS011;46841;48.938;9.502;2024-01-30T06:51:36;1.20;;;1.20;;
60969;SDS011;46841;48.938;9.502;2024-01-30T06:54:02;1.20;;;1.20;;
60969;SDS011;46841;48.938;9.502;2024-01-30T06:56:28;1.10;;;1.10;;
60969;SDS011;46841;48.938;9.502;2024-01-30T06:58:55;1.20;;;1.20;;
60969;SDS011;46841;48.938;9.502;2024-01-30T07:01:20;1.17;;;1.17;;
60969;SDS011;46841;48.938;9.502;2024-01-30T07:03:46;1.20;;;1.20;;
60969;SDS011;46841;48.938;9.502;2024-01-30T07:06:11;1.20;;;1.20;;
60969;SDS011;46841;48.938;9.502;2024-01-30T07:08:37;1.20;;;1.20;;
60969;SDS011;46841;48.938;9.502;2024-01-30T07:11:05;1.20;;;1.20;;
60969;SDS011;46841;48.938;9.502;2024-01-30T07:13:32;1.10;;;1.10;;
60969;SDS011;46841;48.938;9.502;2024-01-30T07:15:57;1.20;;;1.20;;
60969;SDS011;46841;48.938;9.502;2024-01-30T07:18:23;1.10;;;1.10;;
60969;SDS011;46841;48.938;9.502;2024-01-30T07:20:50;1.10;;;1.10;;
60969;SDS011;46841;48.938;9.502;2024-01-30T07:23:16;1.20;;;1.20;;
60969;SDS011;46841;48.938;9.502;2024-01-30T07:25:45;1.20;;;1.20;;
60969;SDS011;46841;48.938;9.502;2024-01-30T07:28:14;1.20;;;1.20;;
60969;SDS011;46841;48.938;9.502;2024-01-30T07:30:42;1.20;;;1.20;;
60969;SDS011;46841;48.938;9.502;2024-01-30T07:33:09;1.27;;;1.27;;
60969;SDS011;46841;48.938;9.502;2024-01-30T07:35:38;1.20;;;1.20;;
60969;SDS011;46841;48.938;9.502;2024-01-30T07:38:05;1.20;;;1.20;;
60969;SDS011;46841;48.938;9.502;2024-01-30T07:40:30;1.20;;;1.20;;
60969;SDS011;46841;48.938;9.502;2024-01-30T07:42:55;1.20;;;1.20;;
60969;SDS011;46841;48.938;9.502;2024-01-30T07:45:21;1.20;;;1.20;;
60969;SDS011;46841;48.938;9.502;2024-01-30T07:47:51;1.15;;;1.15;;
60969;SDS011;46841;48.938;9.502;2024-01-30T07:50:17;1.20;;;1.20;;
60969;SDS011;46841;48.938;9.502;2024-01-30T07:52:43;1.20;;;1.20;;
60969;SDS011;46841;48.938;9.502;2024-01-30T07:55:08;1.20;;;1.20;;
60969;SDS011;46841;48.938;9.502;2024-01-30T07:57:35;1.20;;;1.20;;
60969;SDS011;46841;48.938;9.502;2024-01-30T08:00:01;1.17;;;1.17;;
60969;SDS011;46841;48.938;9.502;2024-01-30T08:02:32;1.13;;;1.13;;
60969;SDS011;46841;48.938;9.502;2024-01-30T08:04:59;1.20;;;1.20;;
60969;SDS011;46841;48.938;9.502;2024-01-30T08:07:24;1.10;;;1.10;;
60969;SDS011;46841;48.938;9.502;2024-01-30T08:09:50;1.20;;;1.20;;
60969;SDS011;46841;48.938;9.502;2024-01-30T08:12:15;1.10;;;1.10;;
60969;SDS011;46841;48.938;9.502;2024-01-30T08:14:41;1.20;;;1.20;;
60969;SDS011;46841;48.938;9.502;2024-01-30T08:17:06;1.00;;;1.00;;
60969;SDS011;46841;48.938;9.502;2024-01-30T08:19:32;1.13;;;1.13;;
60969;SDS011;46841;48.938;9.502;2024-01-30T08:21:58;1.20;;;1.20;;
60969;SDS011;46841;48.938;9.502;2024-01-30T08:24:25;1.10;;;1.10;;
60969;SDS011;46841;48.938;9.502;2024-01-30T08:26:50;1.00;;;1.00;;
60969;SDS011;46841;48.938;9.502;2024-01-30T08:29:16;1.08;;;1.08;;
60969;SDS011;46841;48.938;9.502;2024-01-30T08:31:41;1.10;;;1.10;;
60969;SDS011;46841;48.938;9.502;2024-01-30T08:34:07;1.10;;;1.10;;
60969;SDS011;46841;48.938;9.502;2024-01-30T08:36:33;1.05;;;1.05;;
60969;SDS011;46841;48.938;9.502;2024-01-30T08:38:59;1.00;;;1.00;;
60969;SDS011;46841;48.938;9.502;2024-01-30T08:41:25;1.00;;;1.00;;
60969;SDS011;46841;48.938;9.502;2024-01-30T08:43:51;0.90;;;0.90;;
60969;SDS011;46841;48.938;9.502;2024-01-30T08:46:18;1.10;;;1.10;;
60969;SDS011;46841;48.938;9.502;2024-01-30T08:48:43;1.10;;;1.10;;
60969;SDS011;46841;48.938;9.502;2024-01-30T08:51:12;1.10;;;1.10;;
60969;SDS011;46841;48.938;9.502;2024-01-30T08:53:38;0.82;;;0.82;;
60969;SDS011;46841;48.938;9.502;2024-01-30T08:56:05;0.95;;;0.95;;
60969;SDS011;46841;48.938;9.502;2024-01-30T08:58:31;1.00;;;1.00;;
60969;SDS011;46841;48.938;9.502;2024-01-30T09:00:58;0.90;;;0.90;;
60969;SDS011;46841;48.938;9.502;2024-01-30T09:03:23;0.90;;;0.90;;
60969;SDS011;46841;48.938;9.502;2024-01-30T09:05:49;0.80;;;0.80;;
60969;SDS011;46841;48.938;9.502;2024-01-30T09:08:14;0.80;;;0.80;;
60969;SDS011;46841;48.938;9.502;2024-01-30T09:10:40;0.80;;;0.80;;
60969;SDS011;46841;48.938;9.502;2024-01-30T09:13:07;0.90;;;0.90;;
60969;SDS011;46841;48.938;9.502;2024-01-30T09:15:32;0.80;;;0.80;;
60969;SDS011;46841;48.938;9.502;2024-01-30T09:17:58;0.80;;;0.80;;
60969;SDS011;46841;48.938;9.502;2024-01-30T09:20:23;0.70;;;0.70;;
60969;SDS011;46841;48.938;9.502;2024-01-30T09:22:50;0.70;;;0.70;;
60969;SDS011;46841;48.938;9.502;2024-01-30T09:25:15;0.70;;;0.70;;
60969;SDS011;46841;48.938;9.502;2024-01-30T09:27:41;0.60;;;0.60;;
60969;SDS011;46841;48.938;9.502;2024-01-30T09:30:06;0.70;;;0.70;;
60969;SDS011;46841;48.938;9.502;2024-01-30T09:32:32;0.70;;;0.70;;
60969;SDS011;46841;48.938;9.502;2024-01-30T09:35:01;0.60;;;0.60;;
60969;SDS011;46841;48.938;9.502;2024-01-30T09:37:26;0.70;;;0.70;;
60969;SDS011;46841;48.938;9.502;2024-01-30T09:39:52;0.70;;;0.70;;
60969;SDS011;46841;48.938;9.502;2024-01-30T09:42:21;0.63;;;0.63;;
60969;SDS011;46841;48.938;9.502;2024-01-30T09:44:52;0.60;;;0.60;;
60969;SDS011;46841;48.938;9.502;2024-01-30T09:47:18;0.70;;;0.70;;
60969;SDS011;46841;48.938;9.502;2024-01-30T09:49:45;0.60;;;0.60;;
60969;SDS011;46841;48.938;9.502;2024-01-30T09:52:11;0.60;;;0.60;;
60969;SDS011;46841;48.938;9.502;2024-01-30T09:54:36;0.60;;;0.60;;
60969;SDS011;46841;48.938;9.502;2024-01-30T09:57:03;0.70;;;0.70;;
60969;SDS011;46841;48.938;9.502;2024-01-30T09:59:29;0.70;;;0.70;;
60969;SDS011;46841;48.938;9.502;2024-01-30T10:01:55;0.60;;;0.60;;
60969;SDS011;46841;48.938;9.502;2024-01-30T10:04:22;0.60;;;0.60;;
60969;SDS011;46841;48.938;9.502;2024-01-30T10:06:47;0.60;;;0.60;;
60969;SDS011;46841;48.938;9.502;2024-01-30T10:09:13;0.60;;;0.60;;
60969;SDS011;46841;48.938;9.502;2024-01-30T10:11:39;0.60;;;0.60;;
60969;SDS011;46841;48.938;9.502;2024-01-30T10:14:04;0.55;;;0.55;;
60969;SDS011;46841;48.938;9.502;2024-01-30T10:16:30;0.60;;;0.60;;
60969;SDS011;46841;48.938;9.502;2024-01-30T10:18:55;0.50;;;0.50;;
60969;SDS011;46841;48.938;9.502;2024-01-30T10:21:21;0.50;;;0.50;;
60969;SDS011;46841;48.938;9.502;2024-01-30T10:23:46;0.50;;;0.50;;
60969;SDS011;46841;48.938;9.502;2024-01-30T10:26:12;0.60;;;0.60;;
60969;SDS011;46841;48.938;9.502;2024-01-30T10:28:39;0.60;;;0.60;;
60969;SDS011;46841;48.938;9.502;2024-01-30T10:31:04;0.50;;;0.50;;
60969;SDS011;46841;48.938;9.502;2024-01-30T10:33:31;0.52;;;0.52;;
60969;SDS011;46841;48.938;9.502;2024-01-30T10:36:04;0.60;;;0.60;;
60969;SDS011;46841;48.938;9.502;2024-01-30T10:38:30;0.57;;;0.57;;
60969;SDS011;46841;48.938;9.502;2024-01-30T10:41:02;0.50;;;0.50;;
60969;SDS011;46841;48.938;9.502;2024-01-30T10:43:32;0.47;;;0.47;;
60969;SDS011;46841;48.938;9.502;2024-01-30T10:46:08;0.50;;;0.50;;
60969;SDS011;46841;48.938;9.502;2024-01-30T10:51:09;0.50;;;0.50;;
60969;SDS011;46841;48.938;9.502;2024-01-30T10:53:34;0.50;;;0.50;;
60969;SDS011;46841;48.938;9.502;2024-01-30T10:56:03;0.50;;;0.50;;
60969;SDS011;46841;48.938;9.502;2024-01-30T10:58:29;0.40;;;0.40;;
60969;SDS011;46841;48.938;9.502;2024-01-30T11:00:55;0.50;;;0.50;;
60969;SDS011;46841;48.938;9.502;2024-01-30T11:03:22;0.50;;;0.50;;
60969;SDS011;46841;48.938;9.502;2024-01-30T11:05:49;0.60;;;0.60;;
60969;SDS011;46841;48.938;9.502;2024-01-30T11:08:22;0.50;;;0.50;;
60969;SDS011;46841;48.938;9.502;2024-01-30T11:10:49;0.50;;;0.50;;
60969;SDS011;46841;48.938;9.502;2024-01-30T11:13:15;0.40;;;0.40;;
60969;SDS011;46841;48.938;9.502;2024-01-30T11:15:41;0.50;;;0.50;;
60969;SDS011;46841;48.938;9.502;2024-01-30T11:18:06;0.50;;;0.50;;
60969;SDS011;46841;48.938;9.502;2024-01-30T11:20:32;0.50;;;0.50;;
60969;SDS011;46841;48.938;9.502;2024-01-30T11:22:58;0.45;;;0.45;;
60969;SDS011;46841;48.938;9.502;2024-01-30T11:25:27;0.50;;;0.50;;
60969;SDS011;46841;48.938;9.502;2024-01-30T11:27:54;0.50;;;0.50;;
60969;SDS011;46841;48.938;9.502;2024-01-30T11:30:30;0.50;;;0.50;;
60969;SDS011;46841;48.938;9.502;2024-01-30T11:33:05;0.47;;;0.47;;
60969;SDS011;46841;48.938;9.502;2024-01-30T11:35:45;0.50;;;0.50;;
60969;SDS011;46841;48.938;9.502;2024-01-30T11:38:13;0.50;;;0.50;;
60969;SDS011;46841;48.938;9.502;2024-01-30T11:40:40;0.43;;;0.43;;
60969;SDS011;46841;48.938;9.502;2024-01-30T11:43:06;0.50;;;0.50;;
60969;SDS011;46841;48.938;9.502;2024-01-30T11:47:59;0.50;;;0.50;;
60969;SDS011;46841;48.938;9.502;2024-01-30T11:50:32;0.50;;;0.50;;
60969;SDS011;46841;48.938;9.502;2024-01-30T11:53:02;0.50;;;0.50;;
60969;SDS011;46841;48.938;9.502;2024-01-30T11:55:28;0.50;;;0.50;;
60969;SDS011;46841;48.938;9.502;2024-01-30T11:57:57;0.60;;;0.60;;
60969;SDS011;46841;48.938;9.502;2024-01-30T12:00:24;0.50;;;0.50;;
60969;SDS011;46841;48.938;9.502;2024-01-30T12:02:52;0.40;;;0.40;;
60969;SDS011;46841;48.938;9.502;2024-01-30T12:05:24;0.40;;;0.40;;
60969;SDS011;46841;48.938;9.502;2024-01-30T12:07:51;0.40;;;0.40;;
60969;SDS011;46841;48.938;9.502;2024-01-30T12:10:17;0.50;;;0.50;;
60969;SDS011;46841;48.938;9.502;2024-01-30T12:12:45;0.50;;;0.50;;
60969;SDS011;46841;48.938;9.502;2024-01-30T12:15:12;0.40;;;0.40;;
60969;SDS011;46841;48.938;9.502;2024-01-30T12:17:39;0.40;;;0.40;;
60969;SDS011;46841;48.938;9.502;2024-01-30T12:22:38;0.45;;;0.45;;
60969;SDS011;46841;48.938;9.502;2024-01-30T12:25:08;0.45;;;0.45;;
60969;SDS011;46841;48.938;9.502;2024-01-30T12:27:35;0.40;;;0.40;;
60969;SDS011;46841;48.938;9.502;2024-01-30T12:30:01;0.40;;;0.40;;
60969;SDS011;46841;48.938;9.502;2024-01-30T12:32:29;0.40;;;0.40;;
60969;SDS011;46841;48.938;9.502;2024-01-30T12:34:59;0.40;;;0.40;;
60969;SDS011;46841;48.938;9.502;2024-01-30T12:37:25;0.40;;;0.40;;
60969;SDS011;46841;48.938;9.502;2024-01-30T12:39:53;0.40;;;0.40;;
60969;SDS011;46841;48.938;9.502;2024-01-30T12:42:19;0.40;;;0.40;;
60969;SDS011;46841;48.938;9.502;2024-01-30T12:44:48;0.40;;;0.40;;
60969;SDS011;46841;48.938;9.502;2024-01-30T12:47:15;0.40;;;0.40;;
60969;SDS011;46841;48.938;9.502;2024-01-30T12:49:44;0.40;;;0.40;;
60969;SDS011;46841;48.938;9.502;2024-01-30T12:52:10;0.40;;;0.40;;
60969;SDS011;46841;48.938;9.502;2024-01-30T12:54:37;0.40;;;0.40;;
60969;SDS011;46841;48.938;9.502;2024-01-30T12:57:04;0.40;;;0.40;;
60969;SDS011;46841;48.938;9.502;2024-01-30T12:59:30;0.50;;;0.50;;
60969;SDS011;46841;48.938;9.502;2024-01-30T13:01:55;0.50;;;0.50;;
60969;SDS011;46841;48.938;9.502;2024-01-30T13:04:21;0.50;;;0.50;;
60969;SDS011;46841;48.938;9.502;2024-01-30T13:06:47;0.50;;;0.50;;
60969;SDS011;46841;48.938;9.502;2024-01-30T13:09:13;0.50;;;0.50;;
60969;SDS011;46841;48.938;9.502;2024-01-30T13:11:39;0.40;;;0.40;;
60969;SDS011;46841;48.938;9.502;2024-01-30T13:14:05;0.40;;;0.40;;
60969;SDS011;46841;48.938;9.502;2024-01-30T13:16:31;0.40;;;0.40;;
60969;SDS011;46841;48.938;9.502;2024-01-30T13:18:56;0.40;;;0.40;;
60969;SDS011;46841;48.938;9.502;2024-01-30T13:21:22;0.40;;;0.40;;
60969;SDS011;46841;48.938;9.502;2024-01-30T13:23:47;0.40;;;0.40;;
60969;SDS011;46841;48.938;9.502;2024-01-30T13:26:14;0.40;;;0.40;;
60969;SDS011;46841;48.938;9.502;2024-01-30T13:28:39;0.40;;;0.40;;
60969;SDS011;46841;48.938;9.502;2024-01-30T13:31:06;0.50;;;0.50;;
60969;SDS011;46841;48.938;9.502;2024-01-30T13:33:31;0.50;;;0.50;;
60969;SDS011;46841;48.938;9.502;2024-01-30T13:35:57;0.50;;;0.50;;
60969;SDS011;46841;48.938;9.502;2024-01-30T13:38:23;0.40;;;0.40;;
60969;SDS011;46841;48.938;9.502;2024-01-30T13:40:49;0.50;;;0.50;;
60969;SDS011;46841;48.938;9.502;2024-01-30T13:43:14;0.50;;;0.50;;
60969;SDS011;46841;48.938;9.502;2024-01-30T13:45:39;0.40;;;0.40;;
60969;SDS011;46841;48.938;9.502;2024-01-30T13:50:35;0.50;;;0.50;;
60969;SDS011;46841;48.938;9.502;2024-01-30T13:53:10;0.50;;;0.50;;
60969;SDS011;46841;48.938;9.502;2024-01-30T13:55:37;0.55;;;0.55;;
60969;SDS011;46841;48.938;9.502;2024-01-30T13:58:05;0.50;;;0.50;;
60969;SDS011;46841;48.938;9.502;2024-01-30T14:00:33;0.50;;;0.50;;
60969;SDS011;46841;48.938;9.502;2024-01-30T14:03:02;0.50;;;0.50;;
60969;SDS011;46841;48.938;9.502;2024-01-30T14:05:33;0.50;;;0.50;;
60969;SDS011;46841;48.938;9.502;2024-01-30T14:08:14;0.60;;;0.60;;
60969;SDS011;46841;48.938;9.502;2024-01-30T14:10:42;0.60;;;0.60;;
60969;SDS011;46841;48.938;9.502;2024-01-30T14:13:14;0.40;;;0.40;;
60969;SDS011;46841;48.938;9.502;2024-01-30T14:15:40;0.40;;;0.40;;
60969;SDS011;46841;48.938;9.502;2024-01-30T14:18:08;0.50;;;0.50;;
60969;SDS011;46841;48.938;9.502;2024-01-30T14:20:42;0.50;;;0.50;;
60969;SDS011;46841;48.938;9.502;2024-01-30T14:23:07;0.45;;;0.45;;
60969;SDS011;46841;48.938;9.502;2024-01-30T14:25:35;0.50;;;0.50;;
60969;SDS011;46841;48.938;9.502;2024-01-30T14:28:07;0.50;;;0.50;;
60969;SDS011;46841;48.938;9.502;2024-01-30T14:30:33;0.50;;;0.50;;
60969;SDS011;46841;48.938;9.502;2024-01-30T14:33:03;0.50;;;0.50;;
60969;SDS011;46841;48.938;9.502;2024-01-30T14:35:29;0.50;;;0.50;;
60969;SDS011;46841;48.938;9.502;2024-01-30T14:37:54;0.50;;;0.50;;
60969;SDS011;46841;48.938;9.502;2024-01-30T14:40:22;0.50;;;0.50;;
60969;SDS011;46841;48.938;9.502;2024-01-30T14:42:52;0.50;;;0.50;;
60969;SDS011;46841;48.938;9.502;2024-01-30T14:45:20;0.50;;;0.50;;
60969;SDS011;46841;48.938;9.502;2024-01-30T14:47:49;0.40;;;0.40;;
60969;SDS011;46841;48.938;9.502;2024-01-30T14:50:17;0.50;;;0.50;;
60969;SDS011;46841;48.938;9.502;2024-01-30T14:52:43;0.50;;;0.50;;
60969;SDS011;46841;48.938;9.502;2024-01-30T14:55:11;0.50;;;0.50;;